Time;durP1;ratioP1;P1;durP2;ratioP2;P2;SDS_P1;SDS_P2;PMS_P1;PMS_P2;Temp;Humidity;BMP_temperature;BMP_pressure;BME280_temperature;BME280_humidity;BME280_pressure;Samples;Min_cycle;Max_cycle;Signal;HPM_P1;HPM_P2
2023/05/25 00:00:32;;;;;;;12.73;6.53;;;;;;;8.95;100.00;102398.31;4988924;28;20076;-66
2023/05/25 00:02:58;;;;;;;13.88;6.90;;;;;;;8.94;100.00;102394.84;5006813;28;20315;-65
2023/05/25 00:05:26;;;;;;;13.45;6.93;;;;;;;8.97;100.00;102394.16;5006658;28;20022;-65
2023/05/25 00:07:51;;;;;;;14.85;7.07;;;;;;;8.97;100.00;102394.16;5007664;28;20529;-65
2023/05/25 00:10:16;;;;;;;15.98;7.80;;;;;;;8.94;100.00;102397.41;5006024;28;20148;-66
2023/05/25 00:12:42;;;;;;;14.70;6.97;;;;;;;8.94;100.00;102402.59;5007404;28;20052;-65
2023/05/25 00:15:07;;;;;;;10.82;6.90;;;;;;;8.95;100.00;102395.75;4999198;28;20026;-66
2023/05/25 00:17:35;;;;;;;8.35;5.70;;;;;;;8.96;100.00;102402.72;5001172;28;20876;-65
2023/05/25 00:20:08;;;;;;;12.43;6.70;;;;;;;8.95;100.00;102401.81;5006446;28;20026;-65
2023/05/25 00:22:37;;;;;;;8.65;6.35;;;;;;;8.94;100.00;102409.47;5007178;28;20140;-66
2023/05/25 00:25:04;;;;;;;12.15;6.65;;;;;;;8.93;100.00;102399.91;5006928;28;20054;-66
2023/05/25 00:27:30;;;;;;;12.23;6.32;;;;;;;8.93;100.00;102402.50;5006913;28;20053;-66
2023/05/25 00:29:55;;;;;;;11.60;6.55;;;;;;;8.93;100.00;102399.91;5010457;28;20042;-65
2023/05/25 00:32:21;;;;;;;12.25;6.82;;;;;;;8.92;100.00;102403.31;5009791;28;20014;-65
2023/05/25 00:34:46;;;;;;;11.13;6.20;;;;;;;8.91;100.00;102397.22;5010365;28;20037;-65
2023/05/25 00:37:12;;;;;;;12.02;6.43;;;;;;;8.87;100.00;102397.81;5009607;28;20172;-66
2023/05/25 00:39:37;;;;;;;8.32;6.25;;;;;;;8.88;100.00;102405.69;5010315;28;20075;-65
2023/05/25 00:42:05;;;;;;;14.48;7.47;;;;;;;8.87;100.00;102408.16;5010268;28;20022;-65
2023/05/25 00:44:30;;;;;;;13.18;6.28;;;;;;;8.85;100.00;102402.91;5010346;28;20021;-65
2023/05/25 00:46:56;;;;;;;13.02;5.90;;;;;;;8.84;100.00;102397.63;5001282;28;20088;-65
2023/05/25 00:49:21;;;;;;;9.95;6.38;;;;;;;8.85;100.00;102407.19;5009959;28;20026;-66
2023/05/25 00:51:48;;;;;;;11.70;6.43;;;;;;;8.84;100.00;102407.97;5010008;28;20025;-66
2023/05/25 00:54:15;;;;;;;10.85;5.70;;;;;;;8.82;100.00;102407.88;5009830;28;20068;-66
2023/05/25 00:56:45;;;;;;;11.18;5.70;;;;;;;8.83;100.00;102404.47;5009311;28;20026;-65
2023/05/25 00:59:16;;;;;;;11.38;5.20;;;;;;;8.82;100.00;102402.72;5009661;28;20026;-65
2023/05/25 01:01:44;;;;;;;10.18;5.75;;;;;;;8.80;100.00;102406.88;5009764;28;20052;-66
2023/05/25 01:04:14;;;;;;;9.90;5.85;;;;;;;8.80;100.00;102412.06;5010034;28;20030;-66
2023/05/25 01:06:43;;;;;;;11.13;5.63;;;;;;;8.77;100.00;102407.59;5009298;28;20026;-65
2023/05/25 01:09:11;;;;;;;12.85;6.80;;;;;;;8.73;100.00;102410.78;5009374;28;20052;-66
2023/05/25 01:11:41;;;;;;;14.80;5.97;;;;;;;8.69;100.00;102406.19;5009772;28;20075;-66
2023/05/25 01:14:07;;;;;;;9.85;5.68;;;;;;;8.67;100.00;102404.31;5009325;28;20035;-66
2023/05/25 01:16:33;;;;;;;10.85;5.80;;;;;;;8.63;100.00;102414.44;5009696;28;20033;-65
2023/05/25 01:18:58;;;;;;;10.27;4.88;;;;;;;8.58;100.00;102409.78;5009578;28;20022;-66
2023/05/25 01:21:41;;;;;;;10.18;5.93;;;;;;;8.55;100.00;102410.44;5009005;28;20053;-65
2023/05/25 01:24:31;;;;;;;10.57;5.45;;;;;;;8.53;100.00;102415.50;5009192;28;20030;-66
2023/05/25 01:27:32;;;;;;;11.05;5.15;;;;;;;8.51;100.00;102414.50;5009649;28;20140;-66
2023/05/25 01:29:58;;;;;;;10.07;5.90;;;;;;;8.50;100.00;102423.06;5009372;28;20036;-66
2023/05/25 01:32:25;;;;;;;12.98;5.53;;;;;;;8.49;100.00;102433.28;4991193;28;20025;-66
2023/05/25 01:34:51;;;;;;;7.35;4.38;;;;;;;8.46;100.00;102431.38;5009710;28;20029;-65
2023/05/25 01:37:18;;;;;;;10.80;5.70;;;;;;;8.43;100.00;102425.13;5008205;28;20052;-65
2023/05/25 01:39:43;;;;;;;9.82;5.60;;;;;;;8.39;100.00;102432.69;5008226;28;20033;-66
2023/05/25 01:42:09;;;;;;;9.68;5.15;;;;;;;8.37;100.00;102433.34;5008923;28;20030;-65
2023/05/25 01:44:36;;;;;;;8.32;5.30;;;;;;;8.33;100.00;102429.66;4991690;28;20025;-66
2023/05/25 01:47:27;;;;;;;11.00;5.90;;;;;;;8.31;100.00;102430.38;5009162;28;20524;-66
2023/05/25 01:50:05;;;;;;;7.97;5.25;;;;;;;8.27;100.00;102427.56;4990883;28;20030;-66
2023/05/25 01:52:35;;;;;;;11.93;5.80;;;;;;;8.28;100.00;102438.81;5009090;28;20104;-66
2023/05/25 01:55:03;;;;;;;10.10;5.27;;;;;;;8.23;100.00;102442.75;5008975;28;20026;-66
2023/05/25 01:57:34;;;;;;;8.90;4.82;;;;;;;8.18;100.00;102439.88;5009249;28;20269;-65
2023/05/25 02:00:02;;;;;;;10.75;5.72;;;;;;;8.13;100.00;102436.97;5008229;28;20481;-66
2023/05/25 02:02:29;;;;;;;9.38;5.45;;;;;;;8.09;100.00;102440.16;5008777;28;20489;-65
2023/05/25 02:04:54;;;;;;;8.75;5.65;;;;;;;8.03;100.00;102443.22;5008440;28;20022;-67
2023/05/25 02:07:21;;;;;;;10.30;4.90;;;;;;;7.99;100.00;102440.28;5008561;28;20371;-65
2023/05/25 02:09:46;;;;;;;10.38;5.88;;;;;;;7.97;100.00;102444.47;5008948;28;20079;-66
2023/05/25 02:12:12;;;;;;;8.50;5.05;;;;;;;7.93;100.00;102443.38;5008166;28;20026;-66
2023/05/25 02:14:37;;;;;;;8.75;4.60;;;;;;;7.90;100.00;102438.88;5008581;28;20053;-65
2023/05/25 02:17:03;;;;;;;7.43;5.22;;;;;;;7.87;100.00;102432.63;5008229;28;20068;-66
2023/05/25 02:19:28;;;;;;;8.10;5.82;;;;;;;7.86;100.00;102430.84;5008163;28;20029;-66
2023/05/25 02:21:54;;;;;;;11.65;5.57;;;;;;;7.82;100.00;102434.91;5008185;28;20061;-65
2023/05/25 02:24:22;;;;;;;8.30;4.93;;;;;;;7.80;100.00;102444.22;4990502;28;20024;-65
2023/05/25 02:26:47;;;;;;;8.15;5.50;;;;;;;7.78;100.00;102432.88;5008735;28;20065;-66
2023/05/25 02:29:12;;;;;;;8.95;5.03;;;;;;;7.78;100.00;102441.53;5008324;28;20053;-66
2023/05/25 02:31:38;;;;;;;10.07;4.97;;;;;;;7.74;100.00;102441.19;5008251;28;20025;-65
2023/05/25 02:34:03;;;;;;;9.02;5.53;;;;;;;7.72;100.00;102433.34;5008115;28;20096;-64
2023/05/25 02:36:28;;;;;;;7.82;5.15;;;;;;;7.67;100.00;102435.63;5007536;28;20466;-65
2023/05/25 02:38:54;;;;;;;10.93;5.30;;;;;;;7.63;100.00;102433.59;5007938;28;20026;-66
2023/05/25 02:41:20;;;;;;;10.05;4.82;;;;;;;7.60;100.00;102430.81;5008140;28;20030;-65
2023/05/25 02:43:45;;;;;;;6.97;5.30;;;;;;;7.57;100.00;102433.19;5008423;28;20018;-66
2023/05/25 02:46:11;;;;;;;9.68;5.35;;;;;;;7.56;100.00;102436.53;5007545;28;20030;-65
2023/05/25 02:48:36;;;;;;;8.38;5.15;;;;;;;7.54;100.00;102431.28;5007617;28;20025;-65
2023/05/25 02:51:02;;;;;;;8.80;5.57;;;;;;;7.54;100.00;102439.00;5007726;28;20104;-66
2023/05/25 02:53:28;;;;;;;7.80;4.85;;;;;;;7.52;100.00;102434.56;5007694;28;20033;-65
2023/05/25 02:55:53;;;;;;;14.05;4.93;;;;;;;7.52;100.00;102442.28;5007986;28;20033;-66
2023/05/25 02:58:18;;;;;;;6.97;5.00;;;;;;;7.51;100.00;102432.75;5006778;28;20057;-66
2023/05/25 03:00:45;;;;;;;9.50;5.13;;;;;;;7.49;100.00;102439.47;5003568;28;20375;-65
2023/05/25 03:03:10;;;;;;;7.25;4.95;;;;;;;7.47;100.00;102435.88;5003858;28;20038;-65
2023/05/25 03:05:37;;;;;;;8.10;4.90;;;;;;;7.44;100.00;102432.34;5007223;28;20564;-65
2023/05/25 03:08:02;;;;;;;7.15;5.07;;;;;;;7.44;100.00;102437.50;5007313;28;20022;-66
2023/05/25 03:10:28;;;;;;;9.98;5.22;;;;;;;7.40;100.00;102443.22;5007141;28;20026;-65
2023/05/25 03:12:53;;;;;;;7.03;4.90;;;;;;;7.36;100.00;102443.78;5007823;28;20052;-65
2023/05/25 03:15:18;;;;;;;8.70;5.35;;;;;;;7.31;100.00;102446.03;5006827;28;20030;-66
2023/05/25 03:17:44;;;;;;;8.38;5.03;;;;;;;7.29;100.00;102457.00;5006947;28;20026;-66
2023/05/25 03:20:10;;;;;;;8.40;5.32;;;;;;;7.25;100.00;102460.19;5007038;28;20022;-65
2023/05/25 03:22:35;;;;;;;7.80;5.78;;;;;;;7.20;100.00;102459.81;5005577;28;20132;-66
2023/05/25 03:25:02;;;;;;;8.95;5.25;;;;;;;7.18;100.00;102462.31;5005811;28;20183;-65
2023/05/25 03:27:27;;;;;;;9.75;6.40;;;;;;;7.18;100.00;102457.16;5005237;28;20037;-66
2023/05/25 03:29:52;;;;;;;9.10;6.80;;;;;;;7.16;100.00;102461.28;5005759;28;20696;-65
2023/05/25 03:32:18;;;;;;;8.70;6.03;;;;;;;7.19;100.00;102465.78;5004420;28;20157;-66
2023/05/25 03:34:43;;;;;;;8.63;5.65;;;;;;;7.17;100.00;102468.25;5006653;28;20030;-65
2023/05/25 03:37:09;;;;;;;11.70;6.22;;;;;;;7.19;100.00;102476.09;4986964;28;20041;-64
2023/05/25 03:39:34;;;;;;;14.57;7.18;;;;;;;7.19;100.00;102477.00;5006543;28;20511;-66
2023/05/25 03:42:00;;;;;;;12.68;7.22;;;;;;;7.20;100.00;102485.63;5007249;28;20153;-65
2023/05/25 03:44:26;;;;;;;10.60;6.80;;;;;;;7.19;100.00;102477.00;5007057;28;20061;-64
2023/05/25 03:46:51;;;;;;;12.02;7.45;;;;;;;7.19;100.00;102477.00;5006791;28;20128;-65
2023/05/25 03:49:17;;;;;;;12.60;8.23;;;;;;;7.21;100.00;102477.13;5006685;28;20108;-65
2023/05/25 03:51:43;;;;;;;9.85;7.70;;;;;;;7.22;100.00;102481.47;5007166;28;20022;-65
2023/05/25 03:54:09;;;;;;;12.77;8.95;;;;;;;7.24;100.00;102474.75;5006700;28;20034;-65
2023/05/25 03:56:34;;;;;;;12.50;8.60;;;;;;;7.27;100.00;102484.38;4989493;28;20045;-65
2023/05/25 03:58:59;;;;;;;14.05;9.68;;;;;;;7.29;100.00;102487.97;5006748;28;20204;-65
2023/05/25 04:01:25;;;;;;;14.73;9.25;;;;;;;7.30;100.00;102488.06;5006577;28;20034;-65
2023/05/25 04:03:54;;;;;;;14.57;9.43;;;;;;;7.30;100.00;102492.34;5009087;28;20270;-65
2023/05/25 04:06:19;;;;;;;13.88;9.23;;;;;;;7.30;100.00;102497.50;5010972;28;20091;-65
2023/05/25 04:08:45;;;;;;;17.08;10.00;;;;;;;7.30;100.00;102492.34;5011205;28;20470;-65
2023/05/25 04:11:10;;;;;;;14.00;10.38;;;;;;;7.34;100.00;102486.59;5009903;28;20389;-65
2023/05/25 04:13:38;;;;;;;10.50;9.27;;;;;;;7.38;100.00;102496.38;5010896;28;20030;-66
2023/05/25 04:16:05;;;;;;;17.25;10.05;;;;;;;7.40;100.00;102493.88;5010680;28;20037;-65
2023/05/25 04:18:30;;;;;;;9.50;8.18;;;;;;;7.40;100.00;102486.16;5010536;28;20025;-64
2023/05/25 04:20:56;;;;;;;14.35;8.98;;;;;;;7.40;100.00;102499.97;5010401;28;20083;-65
2023/05/25 04:23:21;;;;;;;12.82;10.10;;;;;;;7.40;100.00;102497.38;5010466;28;20539;-66
2023/05/25 04:25:49;;;;;;;14.50;9.75;;;;;;;7.42;100.00;102495.81;4993130;28;20057;-65
2023/05/25 04:28:15;;;;;;;14.10;11.10;;;;;;;7.46;100.00;102499.50;5009729;28;20489;-65
2023/05/25 04:30:40;;;;;;;15.38;9.68;;;;;;;7.51;100.00;102495.56;5010650;28;20018;-65
2023/05/25 04:33:05;;;;;;;12.02;10.02;;;;;;;7.54;100.00;102500.03;5010238;28;20398;-64
2023/05/25 04:35:31;;;;;;;12.05;10.32;;;;;;;7.58;100.00;102502.06;5010525;28;20026;-65
2023/05/25 04:37:56;;;;;;;16.10;11.23;;;;;;;7.61;100.00;102507.41;5009762;28;20498;-65
2023/05/25 04:40:21;;;;;;;14.55;10.68;;;;;;;7.65;100.00;102504.28;5010326;28;20041;-64
2023/05/25 04:42:47;;;;;;;13.18;10.70;;;;;;;7.69;100.00;102505.41;5010443;28;20029;-65
2023/05/25 04:45:16;;;;;;;15.43;11.02;;;;;;;7.76;100.00;102501.56;5010087;28;20073;-66
2023/05/25 04:47:41;;;;;;;14.80;11.45;;;;;;;7.79;100.00;102502.66;5010648;28;20061;-65
2023/05/25 04:50:10;;;;;;;14.10;10.05;;;;;;;7.86;100.00;102500.53;4997084;28;20054;-65
2023/05/25 04:52:35;;;;;;;15.18;9.77;;;;;;;7.91;100.00;102502.66;5010322;28;20044;-65
2023/05/25 04:55:01;;;;;;;14.00;9.23;;;;;;;7.98;100.00;102509.13;5010392;28;20025;-65
2023/05/25 04:57:27;;;;;;;14.82;9.32;;;;;;;8.05;100.00;102508.75;5009883;28;20115;-67
2023/05/25 04:59:53;;;;;;;14.70;9.90;;;;;;;8.13;100.00;102511.84;5010094;28;20087;-64
2023/05/25 05:02:18;;;;;;;13.88;9.60;;;;;;;8.22;100.00;102511.59;5009263;28;20025;-65
2023/05/25 05:04:44;;;;;;;14.65;9.25;;;;;;;8.26;100.00;102520.44;5010276;28;20034;-65
2023/05/25 05:07:10;;;;;;;14.50;8.02;;;;;;;8.34;100.00;102508.97;4991968;28;20030;-65
2023/05/25 05:09:36;;;;;;;11.85;9.27;;;;;;;8.43;100.00;102518.13;5009730;28;20112;-65
2023/05/25 05:12:02;;;;;;;12.65;9.23;;;;;;;8.51;100.00;102522.13;4992267;28;20022;-64
2023/05/25 05:14:27;;;;;;;10.60;7.97;;;;;;;8.58;100.00;102519.19;5008875;28;20030;-66
2023/05/25 05:16:52;;;;;;;12.15;8.40;;;;;;;8.66;100.00;102522.28;5009871;28;20033;-65
2023/05/25 05:19:17;;;;;;;13.90;8.45;;;;;;;8.73;100.00;102521.91;4988822;28;20433;-65
2023/05/25 05:21:43;;;;;;;12.80;8.43;;;;;;;8.80;100.00;102523.22;4997171;28;20029;-65
2023/05/25 05:24:08;;;;;;;15.32;8.35;;;;;;;8.89;100.00;102522.91;5009167;28;20083;-66
2023/05/25 05:26:33;;;;;;;12.55;8.30;;;;;;;8.99;100.00;102533.06;5009531;28;20029;-64
2023/05/25 05:28:59;;;;;;;14.48;7.07;;;;;;;9.09;100.00;102528.50;5009385;28;20040;-65
2023/05/25 05:31:26;;;;;;;12.48;6.95;;;;;;;9.19;100.00;102532.59;5009395;28;20021;-64
2023/05/25 05:33:51;;;;;;;9.88;6.97;;;;;;;9.30;100.00;102541.94;5009710;28;20079;-65
2023/05/25 05:36:17;;;;;;;12.70;6.97;;;;;;;9.41;100.00;102541.75;5008919;28;20034;-65
2023/05/25 05:38:45;;;;;;;12.82;7.40;;;;;;;9.52;100.00;102538.13;5009180;28;20512;-65
2023/05/25 05:41:13;;;;;;;13.25;7.88;;;;;;;9.65;100.00;102546.69;5008622;28;20494;-65
2023/05/25 05:43:41;;;;;;;11.05;7.65;;;;;;;9.77;100.00;102549.16;5009257;28;20033;-65
2023/05/25 05:46:06;;;;;;;11.02;6.93;;;;;;;9.91;100.00;102555.19;5009128;28;20030;-65
2023/05/25 05:48:32;;;;;;;14.65;7.25;;;;;;;10.03;100.00;102550.78;5008994;28;20037;-65
2023/05/25 05:50:57;;;;;;;11.13;7.47;;;;;;;10.15;100.00;102549.72;5009155;28;20022;-65
2023/05/25 05:53:22;;;;;;;12.68;6.90;;;;;;;10.26;100.00;102561.66;5008980;28;20045;-65
2023/05/25 05:55:47;;;;;;;10.70;6.85;;;;;;;10.38;100.00;102558.91;5009278;28;20462;-67
2023/05/25 05:58:13;;;;;;;8.25;6.30;;;;;;;10.48;100.00;102570.75;5008794;28;20022;-66
2023/05/25 06:00:38;;;;;;;9.55;6.32;;;;;;;10.58;100.00;102572.19;5008371;28;20396;-65
2023/05/25 06:03:03;;;;;;;12.65;6.13;;;;;;;10.67;100.00;102572.75;5009107;28;20486;-64
2023/05/25 06:05:28;;;;;;;13.80;6.60;;;;;;;10.73;100.00;102568.72;5008827;28;20189;-65
2023/05/25 06:07:54;;;;;;;8.70;6.07;;;;;;;10.86;100.00;102572.94;4998436;28;20075;-65
2023/05/25 06:10:19;;;;;;;10.07;5.53;;;;;;;10.95;100.00;102575.19;5008537;28;20026;-65
2023/05/25 06:12:45;;;;;;;8.38;5.97;;;;;;;11.07;100.00;102573.28;5004201;28;20045;-65
2023/05/25 06:15:10;;;;;;;8.68;5.95;;;;;;;11.22;100.00;102572.38;5003034;28;20113;-65
2023/05/25 06:17:35;;;;;;;7.15;5.47;;;;;;;11.34;100.00;102573.09;5008345;28;20025;-65
2023/05/25 06:20:01;;;;;;;7.32;5.13;;;;;;;11.48;100.00;102581.66;5007540;28;20064;-65
2023/05/25 06:22:27;;;;;;;9.55;6.07;;;;;;;11.59;100.00;102573.56;5002720;28;20305;-66
2023/05/25 06:24:53;;;;;;;14.77;7.15;;;;;;;11.69;100.00;102585.38;5008772;28;20473;-65
2023/05/25 06:27:18;;;;;;;9.93;6.18;;;;;;;11.71;100.00;102589.81;5007028;28;20026;-65
2023/05/25 06:29:43;;;;;;;8.00;6.07;;;;;;;11.82;100.00;102584.34;5008959;28;20026;-65
2023/05/25 06:32:09;;;;;;;6.97;5.72;;;;;;;11.97;100.00;102592.97;5007004;28;20053;-65
2023/05/25 06:34:35;;;;;;;9.63;5.55;;;;;;;12.10;100.00;102597.16;4983023;28;20026;-66
2023/05/25 06:37:00;;;;;;;7.47;4.95;;;;;;;12.17;100.00;102593.19;5006320;28;20472;-65
2023/05/25 06:39:26;;;;;;;8.65;5.25;;;;;;;12.21;100.00;102596.84;5006227;28;20606;-66
2023/05/25 06:41:51;;;;;;;9.85;5.15;;;;;;;12.29;100.00;102594.63;5006917;28;20022;-65
2023/05/25 06:44:17;;;;;;;5.47;4.47;;;;;;;12.39;100.00;102591.72;5006327;28;20025;-64
2023/05/25 06:46:43;;;;;;;9.18;5.18;;;;;;;12.52;100.00;102598.44;5007377;28;20105;-63
2023/05/25 06:49:08;;;;;;;10.32;5.03;;;;;;;12.58;100.00;102600.47;5008072;28;20151;-64
2023/05/25 06:51:33;;;;;;;7.28;5.47;;;;;;;12.67;100.00;102610.44;5008232;28;20555;-63
2023/05/25 06:53:59;;;;;;;8.50;5.18;;;;;;;12.73;100.00;102611.69;5004440;28;20471;-63
2023/05/25 06:56:25;;;;;;;8.30;5.63;;;;;;;12.76;100.00;102604.81;4979066;28;20057;-64
2023/05/25 06:58:50;;;;;;;7.60;5.72;;;;;;;12.69;100.00;102606.22;5003090;28;20434;-63
2023/05/25 07:01:16;;;;;;;9.90;6.40;;;;;;;12.59;100.00;102600.53;4997292;28;20081;-64
2023/05/25 07:03:41;;;;;;;9.38;5.45;;;;;;;12.54;100.00;102608.94;4996301;28;20022;-63
2023/05/25 07:06:07;;;;;;;8.95;5.75;;;;;;;12.49;100.00;102609.59;4999054;28;20117;-64
2023/05/25 07:08:32;;;;;;;10.30;5.78;;;;;;;12.59;100.00;102610.06;5007671;28;20519;-64
2023/05/25 07:10:57;;;;;;;11.70;5.35;;;;;;;12.75;100.00;102613.44;4999280;28;20434;-63
2023/05/25 07:13:23;;;;;;;7.03;5.30;;;;;;;12.91;100.00;102615.13;4997892;28;20025;-64
2023/05/25 07:15:48;;;;;;;7.80;4.93;;;;;;;13.11;100.00;102616.13;4996191;28;20028;-63
2023/05/25 07:18:14;;;;;;;9.57;5.18;;;;;;;13.29;100.00;102623.94;5003154;28;20458;-64
2023/05/25 07:20:42;;;;;;;7.25;4.45;;;;;;;13.49;100.00;102618.81;5001587;28;20386;-63
2023/05/25 07:23:10;;;;;;;8.52;5.07;;;;;;;13.63;100.00;102611.72;5000601;28;20097;-63
2023/05/25 07:25:39;;;;;;;8.75;5.35;;;;;;;13.68;100.00;102615.44;5001502;28;20477;-63
2023/05/25 07:28:05;;;;;;;8.65;4.97;;;;;;;13.79;100.00;102621.16;4999814;28;20092;-64
2023/05/25 07:30:30;;;;;;;12.35;5.22;;;;;;;13.79;100.00;102618.56;4992154;28;20029;-64
2023/05/25 07:32:57;;;;;;;8.63;5.40;;;;;;;13.69;100.00;102629.34;4995770;28;20030;-64
2023/05/25 07:35:22;;;;;;;8.57;4.78;;;;;;;13.78;100.00;102621.97;5002777;28;20033;-64
2023/05/25 07:37:58;;;;;;;9.32;4.90;;;;;;;13.95;100.00;102628.78;4999140;28;20581;-64
2023/05/25 07:40:23;;;;;;;7.88;5.10;;;;;;;14.19;100.00;102623.81;5004391;28;20041;-64
2023/05/25 07:42:48;;;;;;;8.25;4.45;;;;;;;14.47;100.00;102627.66;5001194;28;20030;-64
2023/05/25 07:45:15;;;;;;;7.97;5.43;;;;;;;14.71;98.07;102628.66;5002318;28;20037;-65
2023/05/25 07:47:40;;;;;;;8.65;4.93;;;;;;;14.87;95.70;102625.94;4999230;28;20033;-63
2023/05/25 07:50:06;;;;;;;10.70;5.28;;;;;;;15.03;93.96;102625.69;5004336;28;20037;-64
2023/05/25 07:52:31;;;;;;;6.97;4.20;;;;;;;15.24;93.26;102625.66;4986012;28;20036;-63
2023/05/25 07:54:56;;;;;;;7.97;4.93;;;;;;;15.38;90.29;102620.13;5004240;28;20037;-65
2023/05/25 07:57:21;;;;;;;9.15;4.60;;;;;;;15.56;88.78;102622.59;4999518;28;20660;-64
2023/05/25 07:59:47;;;;;;;7.43;4.53;;;;;;;15.67;86.88;102630.88;4995087;28;20037;-65
2023/05/25 08:02:12;;;;;;;8.38;4.03;;;;;;;15.84;86.16;102624.56;4994915;28;20087;-63
2023/05/25 08:04:37;;;;;;;8.10;4.68;;;;;;;15.89;85.98;102626.44;5004146;28;20469;-63
2023/05/25 08:07:03;;;;;;;9.00;4.15;;;;;;;16.03;87.55;102625.28;4998820;28;20079;-64
2023/05/25 08:09:28;;;;;;;8.05;4.30;;;;;;;16.25;86.78;102633.94;5002507;28;20032;-64
2023/05/25 08:11:53;;;;;;;7.03;3.83;;;;;;;16.24;81.04;102634.78;4976370;28;20071;-65
2023/05/25 08:14:19;;;;;;;7.75;4.60;;;;;;;16.38;81.37;102631.75;5001833;28;20030;-64
2023/05/25 08:16:45;;;;;;;7.47;4.20;;;;;;;16.29;81.08;102632.31;4996726;28;20034;-64
2023/05/25 08:19:10;;;;;;;9.90;4.32;;;;;;;16.27;82.06;102632.28;5000466;28;20378;-64
2023/05/25 08:21:36;;;;;;;10.65;5.20;;;;;;;16.14;81.84;102638.75;5000374;28;20128;-64
2023/05/25 08:24:04;;;;;;;7.75;3.83;;;;;;;16.22;81.57;102636.44;5000532;28;20428;-64
2023/05/25 08:26:30;;;;;;;9.15;3.88;;;;;;;16.24;80.29;102642.63;5003646;28;20030;-65
2023/05/25 08:28:56;;;;;;;6.78;3.90;;;;;;;16.29;79.61;102642.78;5001521;28;20433;-64
2023/05/25 08:31:21;;;;;;;7.70;3.45;;;;;;;16.18;78.25;102634.53;4998731;28;20022;-64
2023/05/25 08:33:47;;;;;;;10.77;4.18;;;;;;;16.26;80.86;102635.69;5004911;28;20401;-64
2023/05/25 08:36:12;;;;;;;8.98;3.63;;;;;;;16.54;80.73;102643.69;5004393;28;20026;-65
2023/05/25 08:38:37;;;;;;;7.55;4.05;;;;;;;16.74;78.10;102641.78;5004665;28;20125;-64
2023/05/25 08:41:05;;;;;;;8.38;3.50;;;;;;;16.77;75.54;102641.88;5005394;28;20026;-65
2023/05/25 08:43:33;;;;;;;9.38;3.67;;;;;;;16.92;76.43;102652.00;5004484;28;20036;-65
2023/05/25 08:46:04;;;;;;;10.55;4.45;;;;;;;17.05;76.57;102650.66;5004388;28;20022;-64
2023/05/25 08:48:31;;;;;;;7.57;3.90;;;;;;;17.00;77.80;102647.00;5004596;28;20033;-64
2023/05/25 08:51:03;;;;;;;6.47;3.40;;;;;;;16.91;76.00;102655.44;5008924;28;20018;-64
2023/05/25 08:53:33;;;;;;;7.30;3.17;;;;;;;16.55;73.27;102646.34;5008389;28;20048;-64
2023/05/25 08:55:59;;;;;;;7.97;3.83;;;;;;;16.27;76.65;102647.97;5008355;28;20034;-64
2023/05/25 08:58:31;;;;;;;9.85;3.95;;;;;;;16.05;76.71;102655.00;5009470;28;20481;-64
2023/05/25 09:01:02;;;;;;;8.02;3.40;;;;;;;16.00;78.59;102660.88;5009329;28;20030;-64
2023/05/25 09:03:32;;;;;;;8.35;3.70;;;;;;;15.83;77.44;102659.34;4997743;28;20101;-65
2023/05/25 09:05:58;;;;;;;9.90;3.67;;;;;;;15.60;77.69;102655.84;4999766;28;20359;-64
2023/05/25 09:08:25;;;;;;;8.90;3.60;;;;;;;15.64;80.23;102664.69;5009456;28;20168;-64
2023/05/25 09:10:52;;;;;;;9.73;4.15;;;;;;;15.89;80.98;102666.56;5010745;28;20108;-64
2023/05/25 09:13:18;;;;;;;5.78;3.55;;;;;;;16.05;77.90;102659.31;5010238;28;20033;-64
2023/05/25 09:15:43;;;;;;;6.82;3.50;;;;;;;16.07;76.98;102658.56;5010424;28;20069;-64
2023/05/25 09:18:09;;;;;;;6.82;3.30;;;;;;;15.98;79.15;102660.78;5010579;28;20018;-64
2023/05/25 09:20:34;;;;;;;8.18;3.50;;;;;;;15.90;80.14;102660.47;4980899;28;20038;-65
2023/05/25 09:23:00;;;;;;;6.63;3.47;;;;;;;15.80;80.62;102661.84;5009889;28;20033;-64
2023/05/25 09:25:27;;;;;;;9.88;3.30;;;;;;;15.67;82.81;102668.31;5010042;28;20037;-64
2023/05/25 09:27:57;;;;;;;7.32;3.22;;;;;;;15.60;80.58;102661.06;5010003;28;20034;-64
2023/05/25 09:30:23;;;;;;;9.33;3.47;;;;;;;15.58;81.13;102665.31;5010078;28;20026;-64
2023/05/25 09:32:50;;;;;;;11.18;4.10;;;;;;;15.53;81.62;102664.25;5010030;28;20285;-64
2023/05/25 09:35:15;;;;;;;8.15;3.60;;;;;;;15.49;81.05;102671.06;5009794;28;20397;-64
2023/05/25 09:37:42;;;;;;;11.05;3.92;;;;;;;15.41;82.71;102675.09;4991751;28;20030;-64
2023/05/25 09:40:09;;;;;;;8.13;3.20;;;;;;;15.41;79.55;102675.09;5009695;28;20466;-65
2023/05/25 09:42:36;;;;;;;6.22;2.55;;;;;;;15.40;79.41;102674.19;5009958;28;20502;-65
2023/05/25 09:45:01;;;;;;;5.95;2.83;;;;;;;15.47;80.38;102675.38;5009643;28;20048;-64
2023/05/25 09:47:27;;;;;;;8.05;3.20;;;;;;;15.53;81.92;102667.75;5009604;28;20030;-65
2023/05/25 09:49:54;;;;;;;11.55;3.75;;;;;;;15.56;81.51;102667.88;5009873;28;20030;-63
2023/05/25 09:52:20;;;;;;;8.43;3.15;;;;;;;15.54;79.99;102681.72;5002152;28;20036;-64
2023/05/25 09:54:48;;;;;;;7.07;3.17;;;;;;;15.47;79.14;102675.38;5010151;28;20461;-64
2023/05/25 09:57:22;;;;;;;9.48;2.53;;;;;;;15.43;79.43;102671.75;5009938;28;20045;-65
2023/05/25 09:59:47;;;;;;;7.22;2.90;;;;;;;15.42;78.73;102677.78;5008002;28;20030;-64
2023/05/25 10:02:14;;;;;;;4.72;2.35;;;;;;;15.45;80.81;102682.25;5008712;28;20044;-64
2023/05/25 10:04:40;;;;;;;9.02;3.17;;;;;;;15.47;77.96;102680.59;5010324;28;20037;-64
2023/05/25 10:07:06;;;;;;;5.63;2.72;;;;;;;15.51;79.45;102684.22;5010026;28;20041;-63
2023/05/25 10:09:37;;;;;;;5.72;2.50;;;;;;;15.53;76.74;102686.06;5004314;28;20034;-64
2023/05/25 10:12:03;;;;;;;7.25;3.47;;;;;;;15.54;76.38;102682.59;5009707;28;20029;-64
2023/05/25 10:14:28;;;;;;;8.65;3.20;;;;;;;15.55;76.14;102680.88;5009598;28;20025;-64
2023/05/25 10:16:57;;;;;;;6.75;2.63;;;;;;;15.57;76.87;102676.63;5010168;28;20144;-64
2023/05/25 10:19:41;;;;;;;9.35;2.95;;;;;;;15.67;78.86;102675.28;5010039;28;20088;-64
2023/05/25 10:22:13;;;;;;;9.93;3.58;;;;;;;15.75;77.23;102684.31;5009418;28;20509;-65
2023/05/25 10:24:56;;;;;;;6.15;3.45;;;;;;;15.69;77.01;102681.44;5009282;28;20030;-64
2023/05/25 10:27:32;;;;;;;6.50;2.90;;;;;;;15.74;77.82;102679.91;5008633;28;20034;-66
2023/05/25 10:29:59;;;;;;;5.90;3.08;;;;;;;15.73;79.73;102683.34;5007854;28;20223;-66
2023/05/25 10:32:26;;;;;;;7.25;2.78;;;;;;;15.75;80.56;102688.63;5008118;28;20030;-65
2023/05/25 10:34:51;;;;;;;6.35;3.00;;;;;;;15.71;80.79;102685.91;5008759;28;20053;-66
2023/05/25 10:37:17;;;;;;;7.35;3.38;;;;;;;15.69;79.78;102682.34;5008039;28;20042;-66
2023/05/25 10:39:43;;;;;;;8.63;2.90;;;;;;;15.73;78.52;102688.59;5008577;28;20033;-66
2023/05/25 10:42:08;;;;;;;11.55;3.70;;;;;;;15.73;76.35;102686.88;5007453;28;20018;-66
2023/05/25 10:44:34;;;;;;;8.68;2.88;;;;;;;15.75;75.57;102692.16;5006913;28;20099;-66
2023/05/25 10:47:00;;;;;;;6.10;3.38;;;;;;;15.83;78.85;102687.25;5007008;28;20022;-68
2023/05/25 10:49:33;;;;;;;8.18;3.42;;;;;;;15.93;77.99;102681.53;4989378;28;20359;-66
2023/05/25 10:51:59;;;;;;;7.93;2.72;;;;;;;16.00;76.69;102681.78;5006630;28;20097;-66
2023/05/25 10:54:29;;;;;;;8.85;2.95;;;;;;;16.06;75.50;102688.13;5007033;28;20037;-66
2023/05/25 10:57:17;;;;;;;7.57;2.78;;;;;;;16.06;74.98;102693.38;5006946;28;20620;-67
2023/05/25 10:59:48;;;;;;;7.00;2.88;;;;;;;16.04;74.90;102683.69;5007887;28;20033;-66
2023/05/25 11:02:14;;;;;;;6.07;2.90;;;;;;;16.03;73.84;102684.56;5009254;28;20074;-66
2023/05/25 11:04:39;;;;;;;8.10;3.22;;;;;;;16.03;73.10;102680.19;5009291;28;20125;-66
2023/05/25 11:07:12;;;;;;;7.88;3.33;;;;;;;16.13;75.39;102675.31;5009072;28;20113;-66
2023/05/25 11:09:42;;;;;;;9.30;3.05;;;;;;;16.17;74.05;102675.47;5008855;28;20109;-66
2023/05/25 11:12:08;;;;;;;8.77;3.58;;;;;;;16.38;75.97;102674.53;5009382;28;20225;-66
2023/05/25 11:14:35;;;;;;;4.90;3.03;;;;;;;16.43;72.31;102683.44;5009215;28;20397;-66
2023/05/25 11:17:10;;;;;;;8.35;3.10;;;;;;;16.49;70.61;102672.31;5009178;28;20026;-66